Main page
METAR-TAF:

METAR-TAF

Airports :

Friedrichshafen Airport

Friedrichshafen, Germany

latitude: 47-40N, longitude: 009-31E, elevation: 416 m

Current weather observation

The report was made 24 minutes ago, at 18:50 UTC
Wind 2 kt from variable directions
Temperature 3°C
Humidity 60%
Pressure 1016 hPa
Visibility 10 km or more
no clouds below 1500 m and no cumulonimbus

METAR: EDNY 281850Z VRB02KT CAVOK 03/M04 Q1016

Time: 20:14 (19:14 UTC)

Forecast

The report was made 2 hours and 14 minutes ago, at 17:00 UTC
Forecast valid from 28 at 18 UTC to 29 at 18 UTC
Wind 3 kt from variable directions
Visibility 10 km or more
no clouds below 1500 m and no cumulonimbus
Becoming
from 29 at 08 UTC to 29 at 10 UTC
Wind 7 kt from the West/Southwest

TAF: EDNY 281700Z 2818/2918 VRB03KT CAVOK BECMG 2908/2910 25007KT

Weather observations and forecasts of more than 4000 airports (METAR and TAF reports).

The available stations are represented by yellow and red dots on the map.

Hover mouse over dot to see the name of the station.

Then click to see weather observations and forecasts.

To change the map : click on the green buttons with a black cross to zoom in, on the green button with a dash to zoom out, or on the green arrows for adjacent maps.


METAR-TAF: